FAGM METAR and TAF | Updated Today

FAGM METAR

Rand Airport

Observation time: 6:18 hr. ago

FAGM 061400Z 21014KT CAVOK 27/06 Q1020

Need help? Read our tutorial on how to read METARs or read the parsed version below.

Rand Airport (FAGM) METAR

  • Weather conditions on Mon, 06 Feb 2023 14:00:00 +0000 (6:18 hr. ago):
  • Present conditions: Dry
  • Clouds: Clear skies
  • Visibility: Greater than 10 km
  • Wind: 210 degrees at 14 knots
  • Temperature: 27 celsius
  • Dew point: 6 celsius
  • Pressure: 1020 millibars
  • Remarks: None


Useful to know...